sensor_id;sensor_type;location;lat;lon;timestamp;pressure;altitude;pressure_sealevel;temperature
73685;BMP280;61985;51.070;14.064;2023-07-20T00:00:10;98253.91;;;16.63
73685;BMP280;61985;51.070;14.064;2023-07-20T00:02:39;98259.91;;;16.67
73685;BMP280;61985;51.070;14.064;2023-07-20T00:05:05;98265.59;;;16.69
73685;BMP280;61985;51.070;14.064;2023-07-20T00:07:31;98264.06;;;16.62
73685;BMP280;61985;51.070;14.064;2023-07-20T00:10:00;98260.88;;;16.64
73685;BMP280;61985;51.070;14.064;2023-07-20T00:12:25;98248.59;;;16.74
73685;BMP280;61985;51.070;14.064;2023-07-20T00:14:51;98247.38;;;16.75
73685;BMP280;61985;51.070;14.064;2023-07-20T00:17:22;98247.22;;;16.84
73685;BMP280;61985;51.070;14.064;2023-07-20T00:19:47;98245.84;;;16.95
73685;BMP280;61985;51.070;14.064;2023-07-20T00:22:13;98242.44;;;17.00
73685;BMP280;61985;51.070;14.064;2023-07-20T00:24:44;98230.69;;;17.14
73685;BMP280;61985;51.070;14.064;2023-07-20T00:27:17;98230.13;;;17.10
73685;BMP280;61985;51.070;14.064;2023-07-20T00:29:45;98233.06;;;17.01
73685;BMP280;61985;51.070;14.064;2023-07-20T00:32:11;98222.56;;;16.93
73685;BMP280;61985;51.070;14.064;2023-07-20T00:34:36;98231.13;;;17.07
73685;BMP280;61985;51.070;14.064;2023-07-20T00:37:02;98218.50;;;17.09
73685;BMP280;61985;51.070;14.064;2023-07-20T00:39:28;98222.78;;;17.16
73685;BMP280;61985;51.070;14.064;2023-07-20T00:42:04;98236.88;;;17.14
73685;BMP280;61985;51.070;14.064;2023-07-20T00:44:38;98232.03;;;16.98
73685;BMP280;61985;51.070;14.064;2023-07-20T00:47:09;98229.97;;;16.87
73685;BMP280;61985;51.070;14.064;2023-07-20T00:49:42;98236.91;;;16.94
73685;BMP280;61985;51.070;14.064;2023-07-20T00:52:21;98242.44;;;17.00
73685;BMP280;61985;51.070;14.064;2023-07-20T00:54:59;98239.88;;;16.90
73685;BMP280;61985;51.070;14.064;2023-07-20T00:57:41;98246.06;;;16.91
73685;BMP280;61985;51.070;14.064;2023-07-20T01:00:10;98236.88;;;16.88
73685;BMP280;61985;51.070;14.064;2023-07-20T01:02:41;98238.50;;;17.01
73685;BMP280;61985;51.070;14.064;2023-07-20T01:05:22;98237.25;;;17.02
73685;BMP280;61985;51.070;14.064;2023-07-20T01:08:21;98234.38;;;17.11
73685;BMP280;61985;51.070;14.064;2023-07-20T01:11:16;98224.50;;;17.13
73685;BMP280;61985;51.070;14.064;2023-07-20T01:16:43;98228.75;;;17.20
73685;BMP280;61985;51.070;14.064;2023-07-20T01:19:14;98229.47;;;17.15
73685;BMP280;61985;51.070;14.064;2023-07-20T01:28:20;98236.19;;;16.93
73685;BMP280;61985;51.070;14.064;2023-07-20T01:31:27;98245.25;;;16.85
73685;BMP280;61985;51.070;14.064;2023-07-20T01:34:15;98249.34;;;16.75
73685;BMP280;61985;51.070;14.064;2023-07-20T01:36:43;98249.00;;;16.67
73685;BMP280;61985;51.070;14.064;2023-07-20T01:39:13;98249.75;;;16.67
73685;BMP280;61985;51.070;14.064;2023-07-20T01:41:45;98245.69;;;16.57
73685;BMP280;61985;51.070;14.064;2023-07-20T01:44:14;98244.19;;;16.56
73685;BMP280;61985;51.070;14.064;2023-07-20T01:46:44;98248.88;;;16.56
73685;BMP280;61985;51.070;14.064;2023-07-20T01:49:15;98260.56;;;16.41
73685;BMP280;61985;51.070;14.064;2023-07-20T01:51:49;98255.53;;;16.34
73685;BMP280;61985;51.070;14.064;2023-07-20T01:54:14;98254.91;;;16.24
73685;BMP280;61985;51.070;14.064;2023-07-20T01:56:42;98262.22;;;16.18
73685;BMP280;61985;51.070;14.064;2023-07-20T01:59:08;98263.66;;;16.14
73685;BMP280;61985;51.070;14.064;2023-07-20T02:01:36;98260.59;;;16.06
73685;BMP280;61985;51.070;14.064;2023-07-20T02:04:02;98256.75;;;16.13
73685;BMP280;61985;51.070;14.064;2023-07-20T02:06:31;98259.75;;;16.15
73685;BMP280;61985;51.070;14.064;2023-07-20T02:08:56;98263.88;;;16.10
73685;BMP280;61985;51.070;14.064;2023-07-20T02:11:22;98257.03;;;16.15
73685;BMP280;61985;51.070;14.064;2023-07-20T02:13:47;98260.25;;;16.19
73685;BMP280;61985;51.070;14.064;2023-07-20T02:16:13;98261.22;;;16.16
73685;BMP280;61985;51.070;14.064;2023-07-20T02:18:38;98264.25;;;16.03
73685;BMP280;61985;51.070;14.064;2023-07-20T02:21:04;98271.78;;;15.93
73685;BMP280;61985;51.070;14.064;2023-07-20T02:23:30;98260.69;;;15.97
73685;BMP280;61985;51.070;14.064;2023-07-20T02:25:55;98256.00;;;15.97
73685;BMP280;61985;51.070;14.064;2023-07-20T02:28:21;98268.19;;;16.02
73685;BMP280;61985;51.070;14.064;2023-07-20T02:30:48;98263.69;;;15.99
73685;BMP280;61985;51.070;14.064;2023-07-20T02:33:15;98270.56;;;15.94
73685;BMP280;61985;51.070;14.064;2023-07-20T02:35:40;98280.78;;;15.99
73685;BMP280;61985;51.070;14.064;2023-07-20T02:38:06;98276.06;;;16.00
73685;BMP280;61985;51.070;14.064;2023-07-20T02:40:32;98272.41;;;16.03
73685;BMP280;61985;51.070;14.064;2023-07-20T02:42:58;98273.25;;;16.09
73685;BMP280;61985;51.070;14.064;2023-07-20T02:45:23;98271.34;;;16.15
73685;BMP280;61985;51.070;14.064;2023-07-20T02:47:49;98279.03;;;16.17
73685;BMP280;61985;51.070;14.064;2023-07-20T02:50:14;98281.47;;;16.15
73685;BMP280;61985;51.070;14.064;2023-07-20T02:52:40;98278.63;;;16.24
73685;BMP280;61985;51.070;14.064;2023-07-20T02:55:06;98282.59;;;16.23
73685;BMP280;61985;51.070;14.064;2023-07-20T02:57:31;98282.69;;;16.14
73685;BMP280;61985;51.070;14.064;2023-07-20T02:59:57;98281.47;;;16.15
73685;BMP280;61985;51.070;14.064;2023-07-20T03:02:24;98283.91;;;16.13
73685;BMP280;61985;51.070;14.064;2023-07-20T03:04:50;98286.38;;;16.10
73685;BMP280;61985;51.070;14.064;2023-07-20T03:07:19;98290.00;;;16.07
73685;BMP280;61985;51.070;14.064;2023-07-20T03:09:44;98294.63;;;16.01
73685;BMP280;61985;51.070;14.064;2023-07-20T03:12:12;98293.00;;;16.09
73685;BMP280;61985;51.070;14.064;2023-07-20T03:14:38;98291.06;;;16.10
73685;BMP280;61985;51.070;14.064;2023-07-20T03:17:04;98304.28;;;16.02
73685;BMP280;61985;51.070;14.064;2023-07-20T03:19:30;98298.50;;;15.95
73685;BMP280;61985;51.070;14.064;2023-07-20T03:21:55;98305.34;;;15.90
73685;BMP280;61985;51.070;14.064;2023-07-20T03:24:21;98304.38;;;15.93
73685;BMP280;61985;51.070;14.064;2023-07-20T03:26:46;98300.06;;;16.01
73685;BMP280;61985;51.070;14.064;2023-07-20T03:29:11;98297.25;;;15.96
73685;BMP280;61985;51.070;14.064;2023-07-20T03:31:42;98301.38;;;15.91
73685;BMP280;61985;51.070;14.064;2023-07-20T03:34:11;98303.66;;;15.78
73685;BMP280;61985;51.070;14.064;2023-07-20T03:36:39;98302.44;;;15.79
73685;BMP280;61985;51.070;14.064;2023-07-20T03:39:05;98305.03;;;15.88
73685;BMP280;61985;51.070;14.064;2023-07-20T03:41:30;98307.22;;;15.84
73685;BMP280;61985;51.070;14.064;2023-07-20T03:43:56;98298.75;;;15.82
73685;BMP280;61985;51.070;14.064;2023-07-20T03:46:21;98301.78;;;15.84
73685;BMP280;61985;51.070;14.064;2023-07-20T03:48:47;98302.53;;;15.84
73685;BMP280;61985;51.070;14.064;2023-07-20T03:51:12;98303.81;;;15.89
73685;BMP280;61985;51.070;14.064;2023-07-20T03:53:40;98302.53;;;15.84
73685;BMP280;61985;51.070;14.064;2023-07-20T03:56:06;98306.25;;;15.87
73685;BMP280;61985;51.070;14.064;2023-07-20T03:58:31;98308.22;;;15.86
73685;BMP280;61985;51.070;14.064;2023-07-20T04:00:57;98305.91;;;15.79
73685;BMP280;61985;51.070;14.064;2023-07-20T04:03:23;98304.31;;;15.73
73685;BMP280;61985;51.070;14.064;2023-07-20T04:05:53;98304.22;;;15.67
73685;BMP280;61985;51.070;14.064;2023-07-20T04:08:18;98300.84;;;15.72
73685;BMP280;61985;51.070;14.064;2023-07-20T04:10:44;98313.00;;;15.77
73685;BMP280;61985;51.070;14.064;2023-07-20T04:13:10;98305.72;;;15.83
73685;BMP280;61985;51.070;14.064;2023-07-20T04:15:35;98310.00;;;15.75
73685;BMP280;61985;51.070;14.064;2023-07-20T04:18:01;98321.19;;;15.62
73685;BMP280;61985;51.070;14.064;2023-07-20T04:20:26;98316.00;;;15.64
73685;BMP280;61985;51.070;14.064;2023-07-20T04:22:52;98305.53;;;15.57
73685;BMP280;61985;51.070;14.064;2023-07-20T04:25:18;98315.84;;;15.67
73685;BMP280;61985;51.070;14.064;2023-07-20T04:27:44;98320.88;;;15.75
73685;BMP280;61985;51.070;14.064;2023-07-20T04:30:11;98313.84;;;15.83
73685;BMP280;61985;51.070;14.064;2023-07-20T04:32:38;98313.50;;;15.90
73685;BMP280;61985;51.070;14.064;2023-07-20T04:35:06;98319.00;;;15.96
73685;BMP280;61985;51.070;14.064;2023-07-20T04:37:35;98322.38;;;16.05
73685;BMP280;61985;51.070;14.064;2023-07-20T04:40:00;98316.53;;;16.13
73685;BMP280;61985;51.070;14.064;2023-07-20T04:42:26;98318.19;;;16.25
73685;BMP280;61985;51.070;14.064;2023-07-20T04:44:52;98317.81;;;16.32
73685;BMP280;61985;51.070;14.064;2023-07-20T04:47:17;98316.28;;;16.31
73685;BMP280;61985;51.070;14.064;2023-07-20T04:49:42;98322.97;;;16.30
73685;BMP280;61985;51.070;14.064;2023-07-20T04:52:08;98322.78;;;16.34
73685;BMP280;61985;51.070;14.064;2023-07-20T04:54:33;98327.63;;;16.44
73685;BMP280;61985;51.070;14.064;2023-07-20T05:25:23;98323.19;;;16.47
73685;BMP280;61985;51.070;14.064;2023-07-20T05:27:48;98322.94;;;16.45
73685;BMP280;61985;51.070;14.064;2023-07-20T05:30:15;98322.59;;;16.58
73685;BMP280;61985;51.070;14.064;2023-07-20T05:32:41;98325.31;;;16.58
73685;BMP280;61985;51.070;14.064;2023-07-20T05:35:07;98336.19;;;16.58
73685;BMP280;61985;51.070;14.064;2023-07-20T05:37:33;98323.81;;;16.57
73685;BMP280;61985;51.070;14.064;2023-07-20T05:39:59;98331.59;;;16.64
73685;BMP280;61985;51.070;14.064;2023-07-20T05:42:24;98333.25;;;16.61
73685;BMP280;61985;51.070;14.064;2023-07-20T05:44:49;98330.97;;;16.75
73685;BMP280;61985;51.070;14.064;2023-07-20T05:47:17;98328.41;;;16.65
73685;BMP280;61985;51.070;14.064;2023-07-20T05:49:43;98331.44;;;16.73
73685;BMP280;61985;51.070;14.064;2023-07-20T05:52:08;98336.56;;;16.65
73685;BMP280;61985;51.070;14.064;2023-07-20T05:54:34;98331.13;;;16.65
73685;BMP280;61985;51.070;14.064;2023-07-20T05:56:59;98336.88;;;16.73
73685;BMP280;61985;51.070;14.064;2023-07-20T05:59:27;98341.09;;;16.74
73685;BMP280;61985;51.070;14.064;2023-07-20T06:01:54;98335.78;;;16.65
73685;BMP280;61985;51.070;14.064;2023-07-20T06:04:19;98345.47;;;16.66
73685;BMP280;61985;51.070;14.064;2023-07-20T06:06:45;98340.16;;;16.77
73685;BMP280;61985;51.070;14.064;2023-07-20T06:09:11;98350.31;;;16.77
73685;BMP280;61985;51.070;14.064;2023-07-20T06:11:38;98351.97;;;16.74
73685;BMP280;61985;51.070;14.064;2023-07-20T06:14:04;98356.75;;;16.79
73685;BMP280;61985;51.070;14.064;2023-07-20T06:16:29;98348.97;;;16.72
73685;BMP280;61985;51.070;14.064;2023-07-20T06:18:55;98356.91;;;16.70
73685;BMP280;61985;51.070;14.064;2023-07-20T06:21:20;98352.78;;;16.60
73685;BMP280;61985;51.070;14.064;2023-07-20T06:23:46;98344.72;;;16.65
73685;BMP280;61985;51.070;14.064;2023-07-20T06:26:11;98346.25;;;16.72
73685;BMP280;61985;51.070;14.064;2023-07-20T06:28:36;98353.47;;;16.96
73685;BMP280;61985;51.070;14.064;2023-07-20T06:31:02;98350.25;;;17.18
73685;BMP280;61985;51.070;14.064;2023-07-20T06:33:28;98353.09;;;17.29
73685;BMP280;61985;51.070;14.064;2023-07-20T06:35:53;98354.66;;;17.35
73685;BMP280;61985;51.070;14.064;2023-07-20T06:38:19;98357.38;;;17.35
73685;BMP280;61985;51.070;14.064;2023-07-20T06:40:48;98358.34;;;17.59
73685;BMP280;61985;51.070;14.064;2023-07-20T06:43:14;98359.22;;;17.50
73685;BMP280;61985;51.070;14.064;2023-07-20T06:45:40;98361.47;;;17.51
73685;BMP280;61985;51.070;14.064;2023-07-20T06:48:05;98360.91;;;17.42
73685;BMP280;61985;51.070;14.064;2023-07-20T06:50:31;98362.28;;;17.31
73685;BMP280;61985;51.070;14.064;2023-07-20T06:52:56;98363.38;;;17.40
73685;BMP280;61985;51.070;14.064;2023-07-20T06:55:22;98365.13;;;17.43
73685;BMP280;61985;51.070;14.064;2023-07-20T06:57:47;98359.72;;;17.48
73685;BMP280;61985;51.070;14.064;2023-07-20T07:00:13;98369.88;;;17.48
73685;BMP280;61985;51.070;14.064;2023-07-20T07:02:39;98368.84;;;17.45
73685;BMP280;61985;51.070;14.064;2023-07-20T07:05:04;98373.31;;;17.22
73685;BMP280;61985;51.070;14.064;2023-07-20T07:07:30;98373.00;;;17.41
73685;BMP280;61985;51.070;14.064;2023-07-20T07:09:56;98373.66;;;17.56
73685;BMP280;61985;51.070;14.064;2023-07-20T07:12:21;98372.19;;;17.55
73685;BMP280;61985;51.070;14.064;2023-07-20T07:14:46;98378.13;;;17.53
73685;BMP280;61985;51.070;14.064;2023-07-20T07:17:12;98377.03;;;17.71
73685;BMP280;61985;51.070;14.064;2023-07-20T07:19:37;98382.13;;;17.90
73685;BMP280;61985;51.070;14.064;2023-07-20T07:22:04;98373.44;;;18.17
73685;BMP280;61985;51.070;14.064;2023-07-20T07:24:29;98380.94;;;18.23
73685;BMP280;61985;51.070;14.064;2023-07-20T07:27:01;98376.50;;;18.31
73685;BMP280;61985;51.070;14.064;2023-07-20T07:29:27;98377.25;;;18.31
73685;BMP280;61985;51.070;14.064;2023-07-20T07:31:52;98379.28;;;18.42
73685;BMP280;61985;51.070;14.064;2023-07-20T07:34:17;98383.41;;;18.26
73685;BMP280;61985;51.070;14.064;2023-07-20T07:36:43;98379.75;;;18.35
73685;BMP280;61985;51.070;14.064;2023-07-20T07:39:09;98378.06;;;18.43
73685;BMP280;61985;51.070;14.064;2023-07-20T07:41:35;98385.09;;;18.18
73685;BMP280;61985;51.070;14.064;2023-07-20T07:44:03;98392.72;;;18.14
73685;BMP280;61985;51.070;14.064;2023-07-20T07:46:28;98387.16;;;17.97
73685;BMP280;61985;51.070;14.064;2023-07-20T07:48:53;98385.59;;;18.16
73685;BMP280;61985;51.070;14.064;2023-07-20T07:51:19;98386.63;;;18.25
73685;BMP280;61985;51.070;14.064;2023-07-20T07:53:46;98391.69;;;18.06
73685;BMP280;61985;51.070;14.064;2023-07-20T07:56:11;98392.38;;;18.01
73685;BMP280;61985;51.070;14.064;2023-07-20T07:58:37;98389.84;;;17.91
73685;BMP280;61985;51.070;14.064;2023-07-20T08:01:02;98391.25;;;17.81
73685;BMP280;61985;51.070;14.064;2023-07-20T08:03:28;98394.94;;;17.78
73685;BMP280;61985;51.070;14.064;2023-07-20T08:05:56;98393.84;;;17.70
73685;BMP280;61985;51.070;14.064;2023-07-20T08:08:22;98400.69;;;17.60
73685;BMP280;61985;51.070;14.064;2023-07-20T08:10:48;98397.75;;;17.89
73685;BMP280;61985;51.070;14.064;2023-07-20T08:13:13;98394.53;;;17.91
73685;BMP280;61985;51.070;14.064;2023-07-20T08:15:39;98404.06;;;18.01
73685;BMP280;61985;51.070;14.064;2023-07-20T08:18:05;98402.16;;;18.13
73685;BMP280;61985;51.070;14.064;2023-07-20T08:20:31;98410.59;;;18.15
73685;BMP280;61985;51.070;14.064;2023-07-20T08:22:57;98405.72;;;18.25
73685;BMP280;61985;51.070;14.064;2023-07-20T08:25:25;98393.69;;;18.48
73685;BMP280;61985;51.070;14.064;2023-07-20T08:27:50;98393.50;;;18.57
73685;BMP280;61985;51.070;14.064;2023-07-20T08:30:15;98392.78;;;18.63
73685;BMP280;61985;51.070;14.064;2023-07-20T08:32:41;98392.38;;;18.81
73685;BMP280;61985;51.070;14.064;2023-07-20T08:35:06;98396.19;;;19.00
73685;BMP280;61985;51.070;14.064;2023-07-20T08:37:32;98393.50;;;19.12
73685;BMP280;61985;51.070;14.064;2023-07-20T08:39:57;98393.50;;;19.12
73685;BMP280;61985;51.070;14.064;2023-07-20T08:42:23;98402.72;;;19.26
73685;BMP280;61985;51.070;14.064;2023-07-20T08:44:49;98407.66;;;19.16
73685;BMP280;61985;51.070;14.064;2023-07-20T08:47:17;98401.94;;;19.14
73685;BMP280;61985;51.070;14.064;2023-07-20T08:49:43;98401.84;;;18.91
73685;BMP280;61985;51.070;14.064;2023-07-20T08:52:09;98406.47;;;18.68
73685;BMP280;61985;51.070;14.064;2023-07-20T08:54:35;98405.34;;;18.97
73685;BMP280;61985;51.070;14.064;2023-07-20T08:57:05;98407.69;;;19.33
73685;BMP280;61985;51.070;14.064;2023-07-20T08:59:31;98400.78;;;19.49
73685;BMP280;61985;51.070;14.064;2023-07-20T09:01:58;98401.03;;;19.51
73685;BMP280;61985;51.070;14.064;2023-07-20T09:04:24;98398.81;;;19.60
73685;BMP280;61985;51.070;14.064;2023-07-20T09:06:49;98400.56;;;19.80
73685;BMP280;61985;51.070;14.064;2023-07-20T09:09:15;98394.31;;;19.85
73685;BMP280;61985;51.070;14.064;2023-07-20T09:11:40;98395.31;;;19.99
73685;BMP280;61985;51.070;14.064;2023-07-20T09:14:07;98404.25;;;20.00
73685;BMP280;61985;51.070;14.064;2023-07-20T09:16:33;98402.03;;;19.70
73685;BMP280;61985;51.070;14.064;2023-07-20T09:19:12;98402.25;;;19.44
73685;BMP280;61985;51.070;14.064;2023-07-20T09:21:37;98404.25;;;19.55
73685;BMP280;61985;51.070;14.064;2023-07-20T09:24:03;98407.00;;;19.89
73685;BMP280;61985;51.070;14.064;2023-07-20T09:26:28;98395.56;;;20.13
73685;BMP280;61985;51.070;14.064;2023-07-20T09:28:53;98389.03;;;20.49
73685;BMP280;61985;51.070;14.064;2023-07-20T09:31:22;98390.47;;;20.56
73685;BMP280;61985;51.070;14.064;2023-07-20T09:33:49;98390.31;;;20.09
73685;BMP280;61985;51.070;14.064;2023-07-20T09:36:16;98385.63;;;19.81
73685;BMP280;61985;51.070;14.064;2023-07-20T09:38:42;98390.13;;;19.62
73685;BMP280;61985;51.070;14.064;2023-07-20T09:41:14;98389.63;;;19.80
73685;BMP280;61985;51.070;14.064;2023-07-20T09:43:41;98382.88;;;19.87
73685;BMP280;61985;51.070;14.064;2023-07-20T09:46:07;98387.38;;;19.73
73685;BMP280;61985;51.070;14.064;2023-07-20T09:48:32;98393.84;;;19.64
73685;BMP280;61985;51.070;14.064;2023-07-20T09:50:57;98397.34;;;19.71
73685;BMP280;61985;51.070;14.064;2023-07-20T09:53:24;98403.06;;;19.90
73685;BMP280;61985;51.070;14.064;2023-07-20T09:55:52;98398.06;;;19.71
73685;BMP280;61985;51.070;14.064;2023-07-20T09:58:18;98385.13;;;19.77
73685;BMP280;61985;51.070;14.064;2023-07-20T10:00:45;98396.09;;;19.94
73685;BMP280;61985;51.070;14.064;2023-07-20T10:03:14;98394.06;;;19.95
73685;BMP280;61985;51.070;14.064;2023-07-20T10:05:45;98390.59;;;20.00
73685;BMP280;61985;51.070;14.064;2023-07-20T10:08:12;98396.56;;;19.98
73685;BMP280;61985;51.070;14.064;2023-07-20T10:10:41;98391.13;;;19.93
73685;BMP280;61985;51.070;14.064;2023-07-20T10:13:10;98393.59;;;19.85
73685;BMP280;61985;51.070;14.064;2023-07-20T10:15:46;98391.09;;;19.87
73685;BMP280;61985;51.070;14.064;2023-07-20T10:18:17;98391.28;;;20.34
73685;BMP280;61985;51.070;14.064;2023-07-20T10:20:49;98396.22;;;20.53
73685;BMP280;61985;51.070;14.064;2023-07-20T10:23:17;98400.09;;;20.80
73685;BMP280;61985;51.070;14.064;2023-07-20T10:25:43;98406.50;;;20.93
73685;BMP280;61985;51.070;14.064;2023-07-20T10:28:10;98414.50;;;20.91
73685;BMP280;61985;51.070;14.064;2023-07-20T10:30:36;98427.81;;;20.59
73685;BMP280;61985;51.070;14.064;2023-07-20T10:33:03;98429.88;;;19.97
73685;BMP280;61985;51.070;14.064;2023-07-20T10:35:29;98443.81;;;19.71
73685;BMP280;61985;51.070;14.064;2023-07-20T10:38:01;98428.31;;;19.34
73685;BMP280;61985;51.070;14.064;2023-07-20T10:40:32;98423.59;;;19.34
73685;BMP280;61985;51.070;14.064;2023-07-20T10:43:07;98415.19;;;19.43
73685;BMP280;61985;51.070;14.064;2023-07-20T10:48:13;98431.81;;;19.45
73685;BMP280;61985;51.070;14.064;2023-07-20T10:50:40;98437.19;;;19.12
73685;BMP280;61985;51.070;14.064;2023-07-20T10:53:14;98428.00;;;19.09
73685;BMP280;61985;51.070;14.064;2023-07-20T10:55:41;98418.47;;;18.88
73685;BMP280;61985;51.070;14.064;2023-07-20T10:58:12;98423.44;;;18.95
73685;BMP280;61985;51.070;14.064;2023-07-20T11:03:31;98435.69;;;19.11
73685;BMP280;61985;51.070;14.064;2023-07-20T11:05:57;98435.44;;;19.14
73685;BMP280;61985;51.070;14.064;2023-07-20T11:08:43;98423.53;;;19.12
73685;BMP280;61985;51.070;14.064;2023-07-20T11:11:26;98419.53;;;19.07
73685;BMP280;61985;51.070;14.064;2023-07-20T11:14:02;98416.16;;;19.40
73685;BMP280;61985;51.070;14.064;2023-07-20T11:16:39;98409.22;;;19.56
73685;BMP280;61985;51.070;14.064;2023-07-20T11:19:06;98419.69;;;19.69
73685;BMP280;61985;51.070;14.064;2023-07-20T11:21:37;98409.22;;;19.73
73685;BMP280;61985;51.070;14.064;2023-07-20T11:24:04;98405.53;;;19.76
73685;BMP280;61985;51.070;14.064;2023-07-20T11:26:30;98412.69;;;19.91
73685;BMP280;61985;51.070;14.064;2023-07-20T11:28:55;98410.69;;;20.36
73685;BMP280;61985;51.070;14.064;2023-07-20T11:31:21;98409.41;;;20.54
73685;BMP280;61985;51.070;14.064;2023-07-20T11:33:46;98407.84;;;20.64
73685;BMP280;61985;51.070;14.064;2023-07-20T11:36:12;98410.09;;;20.71
73685;BMP280;61985;51.070;14.064;2023-07-20T11:38:41;98399.84;;;20.78
73685;BMP280;61985;51.070;14.064;2023-07-20T11:41:08;98397.88;;;20.72
73685;BMP280;61985;51.070;14.064;2023-07-20T11:43:33;98406.34;;;20.80
73685;BMP280;61985;51.070;14.064;2023-07-20T11:45:59;98400.94;;;20.52
73685;BMP280;61985;51.070;14.064;2023-07-20T11:48:25;98402.88;;;20.68
73685;BMP280;61985;51.070;14.064;2023-07-20T11:50:50;98403.38;;;20.61
73685;BMP280;61985;51.070;14.064;2023-07-20T11:53:24;98396.19;;;20.58
73685;BMP280;61985;51.070;14.064;2023-07-20T11:55:50;98397.56;;;20.93
73685;BMP280;61985;51.070;14.064;2023-07-20T11:58:17;98396.09;;;21.28
73685;BMP280;61985;51.070;14.064;2023-07-20T12:00:44;98399.00;;;22.01
73685;BMP280;61985;51.070;14.064;2023-07-20T12:03:09;98402.47;;;23.08
73685;BMP280;61985;51.070;14.064;2023-07-20T12:05:37;98392.47;;;23.43
73685;BMP280;61985;51.070;14.064;2023-07-20T12:08:03;98396.25;;;23.98
73685;BMP280;61985;51.070;14.064;2023-07-20T12:10:28;98383.84;;;24.18
73685;BMP280;61985;51.070;14.064;2023-07-20T12:12:54;98374.72;;;24.50
73685;BMP280;61985;51.070;14.064;2023-07-20T12:15:25;98379.72;;;24.73
73685;BMP280;61985;51.070;14.064;2023-07-20T12:18:01;98381.28;;;24.95
73685;BMP280;61985;51.070;14.064;2023-07-20T12:20:31;98385.72;;;24.63
73685;BMP280;61985;51.070;14.064;2023-07-20T12:23:11;98381.56;;;24.70
73685;BMP280;61985;51.070;14.064;2023-07-20T12:25:38;98369.47;;;24.73
73685;BMP280;61985;51.070;14.064;2023-07-20T12:28:08;98376.78;;;24.10
73685;BMP280;61985;51.070;14.064;2023-07-20T12:30:34;98372.78;;;23.39
73685;BMP280;61985;51.070;14.064;2023-07-20T12:32:59;98382.22;;;22.73
73685;BMP280;61985;51.070;14.064;2023-07-20T12:35:25;98386.31;;;22.23
73685;BMP280;61985;51.070;14.064;2023-07-20T12:37:50;98392.28;;;22.27
73685;BMP280;61985;51.070;14.064;2023-07-20T12:40:17;98385.06;;;21.99
73685;BMP280;61985;51.070;14.064;2023-07-20T12:42:42;98388.94;;;21.85
73685;BMP280;61985;51.070;14.064;2023-07-20T12:45:08;98393.75;;;21.79
73685;BMP280;61985;51.070;14.064;2023-07-20T12:47:34;98400.13;;;21.57
73685;BMP280;61985;51.070;14.064;2023-07-20T12:49:59;98391.81;;;21.38
73685;BMP280;61985;51.070;14.064;2023-07-20T12:52:25;98390.09;;;21.35
73685;BMP280;61985;51.070;14.064;2023-07-20T12:55:09;98403.06;;;21.29
73685;BMP280;61985;51.070;14.064;2023-07-20T12:57:35;98396.16;;;21.17
73685;BMP280;61985;51.070;14.064;2023-07-20T13:00:03;98393.03;;;21.01
73685;BMP280;61985;51.070;14.064;2023-07-20T13:02:31;98403.59;;;21.22
73685;BMP280;61985;51.070;14.064;2023-07-20T13:04:59;98399.59;;;21.23
73685;BMP280;61985;51.070;14.064;2023-07-20T13:07:33;98390.34;;;21.31
73685;BMP280;61985;51.070;14.064;2023-07-20T13:10:00;98398.81;;;21.33
73685;BMP280;61985;51.070;14.064;2023-07-20T13:12:26;98408.16;;;21.13
73685;BMP280;61985;51.070;14.064;2023-07-20T13:14:52;98396.59;;;21.26
73685;BMP280;61985;51.070;14.064;2023-07-20T13:17:18;98406.09;;;21.20
73685;BMP280;61985;51.070;14.064;2023-07-20T13:19:43;98401.78;;;20.94
73685;BMP280;61985;51.070;14.064;2023-07-20T13:22:08;98410.94;;;21.02
73685;BMP280;61985;51.070;14.064;2023-07-20T13:24:34;98404.28;;;20.92
73685;BMP280;61985;51.070;14.064;2023-07-20T13:26:59;98408.94;;;20.39
73685;BMP280;61985;51.070;14.064;2023-07-20T13:29:24;98402.00;;;20.15
73685;BMP280;61985;51.070;14.064;2023-07-20T13:31:50;98406.97;;;20.17
73685;BMP280;61985;51.070;14.064;2023-07-20T13:34:15;98409.22;;;20.13
73685;BMP280;61985;51.070;14.064;2023-07-20T13:36:41;98408.50;;;20.06
73685;BMP280;61985;51.070;14.064;2023-07-20T13:39:06;98407.25;;;19.96
73685;BMP280;61985;51.070;14.064;2023-07-20T13:41:32;98400.78;;;19.77
73685;BMP280;61985;51.070;14.064;2023-07-20T13:43:58;98394.59;;;19.76
73685;BMP280;61985;51.070;14.064;2023-07-20T13:46:23;98392.84;;;19.79
73685;BMP280;61985;51.070;14.064;2023-07-20T13:48:49;98383.41;;;19.74
73685;BMP280;61985;51.070;14.064;2023-07-20T13:51:14;98393.56;;;19.68
73685;BMP280;61985;51.070;14.064;2023-07-20T13:53:40;98387.13;;;19.71
73685;BMP280;61985;51.070;14.064;2023-07-20T13:56:06;98384.88;;;19.75
73685;BMP280;61985;51.070;14.064;2023-07-20T13:58:32;98385.38;;;19.68
73685;BMP280;61985;51.070;14.064;2023-07-20T14:00:57;98381.41;;;19.75
73685;BMP280;61985;51.070;14.064;2023-07-20T14:03:23;98380.94;;;19.76
73685;BMP280;61985;51.070;14.064;2023-07-20T14:05:49;98395.09;;;19.80
73685;BMP280;61985;51.070;14.064;2023-07-20T14:08:15;98400.06;;;19.76
73685;BMP280;61985;51.070;14.064;2023-07-20T14:10:40;98396.09;;;19.66
73685;BMP280;61985;51.070;14.064;2023-07-20T14:13:06;98403.03;;;19.73
73685;BMP280;61985;51.070;14.064;2023-07-20T14:15:32;98405.03;;;19.83
73685;BMP280;61985;51.070;14.064;2023-07-20T14:17:57;98403.28;;;19.92
73685;BMP280;61985;51.070;14.064;2023-07-20T14:20:23;98404.53;;;19.79
73685;BMP280;61985;51.070;14.064;2023-07-20T14:22:48;98409.97;;;19.68
73685;BMP280;61985;51.070;14.064;2023-07-20T14:25:21;98412.50;;;19.66
73685;BMP280;61985;51.070;14.064;2023-07-20T14:27:46;98412.19;;;19.64
73685;BMP280;61985;51.070;14.064;2023-07-20T14:30:15;98417.19;;;19.65
73685;BMP280;61985;51.070;14.064;2023-07-20T14:32:41;98415.72;;;19.64
73685;BMP280;61985;51.070;14.064;2023-07-20T14:35:07;98421.94;;;19.76
73685;BMP280;61985;51.070;14.064;2023-07-20T14:37:32;98417.94;;;19.89
73685;BMP280;61985;51.070;14.064;2023-07-20T14:39:58;98424.66;;;19.87